Botkinburg, Arkansas
Current Conditions -  °F | °C
As of 2:45 AM on Saturday 25 Oct 2014 (Local Time) from KRUE Reporting Station
Haze Haze  
Wind Chill: 56°   Ceiling: Unl
Heat Index: 56°   Visibility: 3mi
Dew Point: 55°   Wind: 0mph
Humidity: 97%   Direction: NA
Pressure: 30.08"   Gusts: NA
Location:  35.6269°N, 92.5508°W
Report Text: KRUE 250745Z AUTO 00000KT 3SM BR CLR 13/13 A3008 RMK AO2 T01330128
Loading
Personal Weather Stations






























Interactive Weather Map
Tropical Storm Tracking
New forecast layout! Learn more

10-Day Weather Forecast

Advertisements
Track Severe Weather on mobile